Time;durP1;ratioP1;P1;durP2;ratioP2;P2;SDS_P1;SDS_P2;PMS_P1;PMS_P2;Temp;Humidity;BMP_temperature;BMP_pressure;BME280_temperature;BME280_humidity;BME280_pressure;Samples;Min_cycle;Max_cycle;Signal;HPM_P1;HPM_P2
2021/04/28 00:00:25;;;;;;;3.00;2.67;;;7.20;99.90;;;;;;6160982;23;20585;-71
2021/04/28 00:02:51;;;;;;;4.70;2.80;;;7.20;99.90;;;;;;6136392;23;20548;-70
2021/04/28 00:05:17;;;;;;;3.10;2.70;;;7.20;99.90;;;;;;6137009;23;20553;-71
2021/04/28 00:07:44;;;;;;;2.83;2.47;;;7.20;99.90;;;;;;6132950;22;20617;-72
2021/04/28 00:10:12;;;;;;;2.93;2.60;;;7.10;99.90;;;;;;6159678;23;20605;-70
2021/04/28 00:12:38;;;;;;;3.30;2.90;;;7.10;99.90;;;;;;6141700;23;20553;-71
2021/04/28 00:15:07;;;;;;;3.47;3.00;;;6.90;99.90;;;;;;6142069;23;20644;-71
2021/04/28 00:17:36;;;;;;;3.00;2.70;;;7.00;99.90;;;;;;6157117;22;20225;-71
2021/04/28 00:20:06;;;;;;;2.80;2.60;;;7.10;99.90;;;;;;6131870;23;21062;-71
2021/04/28 00:22:31;;;;;;;2.87;2.60;;;7.00;99.90;;;;;;6137852;23;20530;-71
2021/04/28 00:24:57;;;;;;;4.10;2.50;;;7.00;99.90;;;;;;6140382;22;20596;-71
2021/04/28 00:27:22;;;;;;;4.33;2.50;;;7.00;99.90;;;;;;6140672;22;20229;-71
2021/04/28 00:29:48;;;;;;;5.60;3.00;;;7.00;99.90;;;;;;6136903;22;21049;-70
2021/04/28 00:32:14;;;;;;;2.50;2.30;;;7.00;99.90;;;;;;6138697;22;20277;-70
2021/04/28 00:34:40;;;;;;;3.20;2.50;;;7.00;99.90;;;;;;6140047;23;20180;-72
2021/04/28 00:37:05;;;;;;;3.60;2.50;;;6.90;99.90;;;;;;6140708;22;20161;-71
2021/04/28 00:39:31;;;;;;;2.60;2.40;;;6.90;99.90;;;;;;6140005;23;20166;-71
2021/04/28 00:41:57;;;;;;;2.40;2.17;;;6.90;99.90;;;;;;6143379;22;20174;-71
2021/04/28 00:44:23;;;;;;;3.30;2.60;;;6.90;99.90;;;;;;6141547;23;20180;-71
2021/04/28 00:46:48;;;;;;;4.00;2.43;;;6.80;99.90;;;;;;6143301;23;20593;-71
2021/04/28 00:49:14;;;;;;;2.43;2.23;;;6.80;99.90;;;;;;6140530;22;20205;-68
2021/04/28 00:51:40;;;;;;;3.13;2.30;;;6.80;99.90;;;;;;6138293;23;20762;-71
2021/04/28 00:54:06;;;;;;;3.00;2.70;;;6.80;99.90;;;;;;6144122;23;20154;-70
2021/04/28 00:56:32;;;;;;;3.27;2.57;;;6.80;99.90;;;;;;6141016;23;20600;-70
2021/04/28 00:58:57;;;;;;;2.30;2.10;;;6.90;99.90;;;;;;6163058;22;20597;-71
2021/04/28 01:01:23;;;;;;;2.80;2.60;;;6.70;99.90;;;;;;6137962;23;20199;-71
2021/04/28 01:03:49;;;;;;;2.50;2.30;;;6.70;99.90;;;;;;6141218;23;20223;-71
2021/04/28 01:06:15;;;;;;;2.73;2.53;;;6.70;99.90;;;;;;6140051;23;20186;-73
2021/04/28 01:08:41;;;;;;;2.03;1.63;;;6.70;99.90;;;;;;6138613;22;20601;-71
2021/04/28 01:11:10;;;;;;;3.40;2.50;;;6.70;99.90;;;;;;6139652;23;20178;-71
2021/04/28 01:13:35;;;;;;;2.33;2.07;;;6.60;99.90;;;;;;6161260;23;20561;-71
2021/04/28 01:16:01;;;;;;;2.70;2.50;;;6.60;99.90;;;;;;6141272;23;20657;-70
2021/04/28 01:18:27;;;;;;;2.20;2.00;;;6.60;99.90;;;;;;6135298;22;20201;-71
2021/04/28 01:20:52;;;;;;;3.20;2.30;;;6.60;99.90;;;;;;6142336;23;20189;-71
2021/04/28 01:23:20;;;;;;;2.03;1.80;;;6.60;99.90;;;;;;6135758;23;20174;-71
2021/04/28 01:25:49;;;;;;;2.47;2.27;;;6.60;99.90;;;;;;6141422;23;20166;-72
2021/04/28 01:28:22;;;;;;;2.30;2.10;;;6.60;99.90;;;;;;6138865;22;20658;-70
2021/04/28 01:30:51;;;;;;;2.23;2.03;;;6.60;99.90;;;;;;6140822;23;20604;-72
2021/04/28 01:33:24;;;;;;;2.40;2.20;;;6.50;99.90;;;;;;6140559;23;20541;-71
2021/04/28 01:35:53;;;;;;;2.53;1.90;;;6.50;99.90;;;;;;6140630;23;20587;-71
2021/04/28 01:38:19;;;;;;;3.90;2.50;;;6.50;99.90;;;;;;6138523;22;20718;-70
2021/04/28 01:40:45;;;;;;;3.20;2.43;;;6.50;99.90;;;;;;6143951;23;20565;-71
2021/04/28 01:43:11;;;;;;;2.53;2.33;;;6.50;99.90;;;;;;6141102;23;20552;-70
2021/04/28 01:45:37;;;;;;;2.20;2.00;;;6.50;99.90;;;;;;6139855;23;20639;-62
2021/04/28 01:48:06;;;;;;;2.67;2.37;;;6.50;99.90;;;;;;6168569;23;20683;-63
2021/04/28 01:50:33;;;;;;;2.40;2.20;;;6.40;99.90;;;;;;6155001;23;20236;-63
2021/04/28 01:52:59;;;;;;;2.23;2.00;;;6.40;99.90;;;;;;6200678;23;20564;-62
2021/04/28 01:55:25;;;;;;;2.50;2.30;;;6.40;99.90;;;;;;6174094;23;21250;-62
2021/04/28 01:57:51;;;;;;;2.50;2.30;;;6.40;99.90;;;;;;6201095;23;20611;-65
2021/04/28 02:00:20;;;;;;;3.23;2.30;;;6.40;99.90;;;;;;6198008;23;20571;-62
2021/04/28 02:02:46;;;;;;;4.00;2.83;;;6.40;99.90;;;;;;6200900;23;20528;-62
2021/04/28 02:05:13;;;;;;;2.33;2.13;;;6.40;99.90;;;;;;6201753;23;21175;-63
2021/04/28 02:07:41;;;;;;;2.70;2.50;;;6.40;99.90;;;;;;6175188;23;20610;-64
2021/04/28 02:10:07;;;;;;;2.80;2.40;;;6.40;99.90;;;;;;6204090;23;20914;-63
2021/04/28 02:12:33;;;;;;;2.63;2.43;;;6.40;99.90;;;;;;6199005;22;21160;-62
2021/04/28 02:14:59;;;;;;;4.50;2.30;;;6.30;99.90;;;;;;6200141;23;20578;-63
2021/04/28 02:17:28;;;;;;;2.50;2.30;;;6.30;99.90;;;;;;6199053;23;20229;-62
2021/04/28 02:19:54;;;;;;;2.53;2.33;;;6.30;99.90;;;;;;6193339;23;20602;-62
2021/04/28 02:22:19;;;;;;;3.17;2.37;;;6.30;99.90;;;;;;6172229;23;20581;-62
2021/04/28 02:24:48;;;;;;;2.93;2.63;;;6.30;99.90;;;;;;6200755;23;20565;-62
2021/04/28 02:27:14;;;;;;;2.97;2.63;;;6.20;99.90;;;;;;6197255;22;20224;-63
2021/04/28 02:29:41;;;;;;;2.83;2.50;;;6.30;99.90;;;;;;6201694;23;20540;-65
2021/04/28 02:32:08;;;;;;;3.33;2.43;;;6.20;99.90;;;;;;6201703;23;20172;-63
2021/04/28 02:34:34;;;;;;;3.47;2.50;;;6.20;99.90;;;;;;6199271;23;20539;-63
2021/04/28 02:37:00;;;;;;;2.47;2.27;;;6.20;99.90;;;;;;6175939;23;20910;-63
2021/04/28 02:39:34;;;;;;;3.10;2.60;;;6.10;99.90;;;;;;6194693;23;20560;-64
2021/04/28 02:42:02;;;;;;;2.90;2.33;;;6.10;99.90;;;;;;6173538;23;20608;-63
2021/04/28 02:44:30;;;;;;;4.57;2.47;;;6.10;99.90;;;;;;6174344;23;20628;-63
2021/04/28 02:46:57;;;;;;;3.30;2.80;;;6.00;99.90;;;;;;6197916;23;21119;-63
2021/04/28 02:49:24;;;;;;;2.20;2.10;;;6.00;99.90;;;;;;6197334;23;20603;-63
2021/04/28 02:51:52;;;;;;;3.00;2.60;;;6.00;99.90;;;;;;6199490;23;20579;-63
2021/04/28 02:54:21;;;;;;;2.73;2.40;;;6.00;99.90;;;;;;6172355;23;20661;-63
2021/04/28 02:56:52;;;;;;;2.70;2.50;;;6.00;99.90;;;;;;6203631;23;20543;-64
2021/04/28 02:59:24;;;;;;;2.80;2.60;;;5.90;99.90;;;;;;6199497;22;20607;-63
2021/04/28 03:01:52;;;;;;;3.00;2.50;;;5.90;99.90;;;;;;6202835;23;20567;-64
2021/04/28 03:04:19;;;;;;;3.17;2.40;;;6.00;99.90;;;;;;6198830;23;20673;-63
2021/04/28 03:06:47;;;;;;;2.50;2.30;;;5.90;99.90;;;;;;6200633;23;21137;-63
2021/04/28 03:09:14;;;;;;;2.57;2.37;;;5.90;99.90;;;;;;6198938;23;20644;-63
2021/04/28 03:11:42;;;;;;;3.43;2.73;;;5.80;99.90;;;;;;6173999;22;20591;-63
2021/04/28 03:14:08;;;;;;;3.00;2.37;;;5.80;99.90;;;;;;6201039;23;20592;-63
2021/04/28 03:16:34;;;;;;;3.30;2.63;;;5.70;99.90;;;;;;6197140;23;21065;-63
2021/04/28 03:19:02;;;;;;;2.90;2.60;;;5.60;99.90;;;;;;6198045;23;20590;-63
2021/04/28 03:21:30;;;;;;;2.83;2.63;;;5.60;99.90;;;;;;6199449;23;20556;-62
2021/04/28 03:23:56;;;;;;;2.90;2.70;;;5.50;99.90;;;;;;6200463;23;20912;-65
2021/04/28 03:26:23;;;;;;;4.50;2.87;;;5.50;99.90;;;;;;6171621;23;20618;-63
2021/04/28 03:28:49;;;;;;;4.03;3.20;;;5.40;99.90;;;;;;6199696;23;20595;-64
2021/04/28 03:31:15;;;;;;;3.17;2.83;;;5.40;99.90;;;;;;6203319;23;20571;-63
2021/04/28 03:33:40;;;;;;;4.37;2.70;;;5.40;99.90;;;;;;6199868;23;20580;-63
2021/04/28 03:36:06;;;;;;;3.30;2.60;;;5.30;99.90;;;;;;6200348;23;20231;-63
2021/04/28 03:38:32;;;;;;;2.87;2.67;;;5.30;99.90;;;;;;6197423;23;20592;-63
2021/04/28 03:40:58;;;;;;;3.13;2.93;;;5.30;99.90;;;;;;6201738;22;20522;-63
2021/04/28 03:43:24;;;;;;;3.67;3.37;;;5.30;99.90;;;;;;6174729;23;20603;-63
2021/04/28 03:45:51;;;;;;;4.30;3.00;;;5.20;99.90;;;;;;6198232;23;20250;-63
2021/04/28 03:48:16;;;;;;;3.20;2.80;;;5.20;99.90;;;;;;6195499;23;20620;-63
2021/04/28 03:50:42;;;;;;;3.30;3.10;;;5.20;99.90;;;;;;6179621;23;20619;-64
2021/04/28 03:53:08;;;;;;;4.13;3.57;;;5.20;99.90;;;;;;6208607;22;20232;-63
2021/04/28 03:55:33;;;;;;;3.97;2.80;;;5.10;99.90;;;;;;6205000;22;20160;-62
2021/04/28 03:57:59;;;;;;;2.70;2.50;;;5.10;99.90;;;;;;6202912;23;20889;-63
2021/04/28 04:00:25;;;;;;;4.50;3.10;;;5.10;99.90;;;;;;6221632;23;20300;-63
2021/04/28 04:02:50;;;;;;;3.07;2.87;;;5.00;99.90;;;;;;6206176;23;20264;-63
2021/04/28 04:05:16;;;;;;;5.10;3.17;;;5.00;99.90;;;;;;6203443;23;20562;-63
2021/04/28 04:07:42;;;;;;;3.87;3.00;;;5.00;99.90;;;;;;6204713;23;20238;-63
2021/04/28 04:10:10;;;;;;;4.03;3.60;;;4.90;99.90;;;;;;6206827;23;20574;-63
2021/04/28 04:12:36;;;;;;;3.60;3.30;;;4.90;99.90;;;;;;6204575;23;20180;-63
2021/04/28 04:15:02;;;;;;;4.03;3.23;;;4.90;99.90;;;;;;6179042;23;20578;-64
2021/04/28 04:17:28;;;;;;;5.57;2.93;;;4.90;99.90;;;;;;6201229;23;20203;-63
2021/04/28 04:19:53;;;;;;;4.03;2.97;;;4.90;99.90;;;;;;6203910;23;20864;-63
2021/04/28 04:22:21;;;;;;;3.60;3.10;;;4.90;99.90;;;;;;6202821;23;20160;-64
2021/04/28 04:24:47;;;;;;;4.80;3.40;;;4.90;99.90;;;;;;6202579;23;20255;-64
2021/04/28 04:27:12;;;;;;;4.10;3.70;;;4.90;99.90;;;;;;6175570;23;20614;-64
2021/04/28 04:29:38;;;;;;;5.47;3.97;;;4.90;99.90;;;;;;6202665;23;20501;-64
2021/04/28 04:32:04;;;;;;;5.47;3.40;;;4.90;99.90;;;;;;6204650;23;20208;-63
2021/04/28 04:34:29;;;;;;;3.70;3.40;;;4.90;99.90;;;;;;6203261;23;20160;-63
2021/04/28 04:36:55;;;;;;;4.10;3.67;;;4.90;99.90;;;;;;6200547;23;20167;-64
2021/04/28 04:39:20;;;;;;;4.80;4.00;;;4.90;99.90;;;;;;6206284;23;20149;-64
2021/04/28 04:41:46;;;;;;;5.67;4.10;;;4.90;99.90;;;;;;6177223;23;20184;-64
2021/04/28 04:44:11;;;;;;;4.40;3.67;;;5.00;99.90;;;;;;6211720;23;20221;-63
2021/04/28 04:46:37;;;;;;;4.43;3.90;;;5.00;99.90;;;;;;6219466;22;20207;-64
2021/04/28 04:49:03;;;;;;;5.40;3.77;;;5.10;99.90;;;;;;6207343;23;20554;-64
2021/04/28 04:51:28;;;;;;;4.60;4.10;;;5.10;99.90;;;;;;6197535;23;20172;-64
2021/04/28 04:53:55;;;;;;;4.47;4.07;;;5.20;99.90;;;;;;6200955;22;20176;-64
2021/04/28 04:56:20;;;;;;;5.13;3.80;;;5.30;99.90;;;;;;6199795;22;20211;-64
2021/04/28 04:58:48;;;;;;;5.37;4.70;;;5.30;99.90;;;;;;6198562;22;21171;-63
2021/04/28 05:01:14;;;;;;;4.70;4.30;;;5.30;99.90;;;;;;6194514;23;20187;-64
2021/04/28 05:03:40;;;;;;;4.17;3.77;;;5.40;99.90;;;;;;6202968;22;20856;-63
2021/04/28 05:06:05;;;;;;;4.80;4.40;;;5.50;99.90;;;;;;6195046;23;20590;-64
2021/04/28 05:08:31;;;;;;;4.73;4.33;;;5.50;99.90;;;;;;6190534;23;20245;-64
2021/04/28 05:10:56;;;;;;;4.87;4.33;;;5.60;99.90;;;;;;6191724;22;20279;-64
2021/04/28 05:13:22;;;;;;;5.33;4.70;;;5.60;99.90;;;;;;6198663;23;20156;-63
2021/04/28 05:15:48;;;;;;;6.63;4.77;;;5.70;99.90;;;;;;6193820;23;20513;-65
2021/04/28 05:18:14;;;;;;;6.07;5.00;;;5.70;99.90;;;;;;6186145;23;20242;-64
2021/04/28 05:20:39;;;;;;;6.27;4.80;;;5.80;99.90;;;;;;6190797;23;20172;-63
2021/04/28 05:23:05;;;;;;;6.40;5.60;;;5.80;99.90;;;;;;6195546;22;20270;-64
2021/04/28 05:25:31;;;;;;;7.57;4.57;;;5.90;99.90;;;;;;6166692;23;20518;-64
2021/04/28 05:27:56;;;;;;;5.03;4.53;;;5.90;99.90;;;;;;6192450;23;20219;-62
2021/04/28 05:30:24;;;;;;;5.30;4.77;;;6.00;99.90;;;;;;6193811;23;20578;-64
2021/04/28 05:32:50;;;;;;;5.73;4.70;;;6.10;99.90;;;;;;6173710;23;20566;-63
2021/04/28 05:35:17;;;;;;;6.00;5.17;;;6.10;99.90;;;;;;6201921;23;20543;-63
2021/04/28 05:37:43;;;;;;;5.20;4.70;;;6.10;99.90;;;;;;6199731;22;20200;-60
2021/04/28 05:40:10;;;;;;;4.83;4.43;;;6.20;99.90;;;;;;6202316;23;20578;-62
2021/04/28 05:42:39;;;;;;;8.43;5.20;;;6.30;99.90;;;;;;6201184;23;20161;-65
2021/04/28 05:45:07;;;;;;;5.10;4.67;;;6.40;99.90;;;;;;6199384;23;20538;-63
2021/04/28 05:47:33;;;;;;;7.03;5.47;;;6.40;99.90;;;;;;6196985;23;20782;-62
2021/04/28 05:49:59;;;;;;;5.67;5.17;;;6.50;99.90;;;;;;6162058;23;20635;-62
2021/04/28 05:52:25;;;;;;;6.43;5.50;;;6.60;99.90;;;;;;6182428;22;20736;-62
2021/04/28 05:54:50;;;;;;;7.10;5.43;;;6.70;99.90;;;;;;6161052;23;20396;-61
2021/04/28 05:57:17;;;;;;;5.73;5.23;;;6.70;99.90;;;;;;6201782;23;20204;-63
2021/04/28 05:59:46;;;;;;;5.17;4.77;;;6.80;99.90;;;;;;6214539;23;20163;-62
2021/04/28 06:02:12;;;;;;;5.33;4.83;;;6.80;99.90;;;;;;6207406;22;21106;-62
2021/04/28 06:04:38;;;;;;;5.50;5.00;;;7.00;99.90;;;;;;6211447;23;20547;-63
2021/04/28 06:07:07;;;;;;;6.00;5.50;;;7.00;99.90;;;;;;6209988;22;20618;-62
2021/04/28 06:09:33;;;;;;;6.20;5.60;;;7.10;99.90;;;;;;6208427;22;20570;-62
2021/04/28 06:11:59;;;;;;;8.23;5.43;;;7.30;99.90;;;;;;6208253;23;20666;-62
2021/04/28 06:14:24;;;;;;;6.23;5.10;;;7.30;99.90;;;;;;6201354;22;20183;-62
2021/04/28 06:16:50;;;;;;;6.07;5.47;;;7.40;99.90;;;;;;6197158;23;20168;-62
2021/04/28 06:19:16;;;;;;;5.70;5.10;;;7.50;99.90;;;;;;6192371;23;20449;-62
2021/04/28 06:21:42;;;;;;;5.07;4.57;;;7.60;99.90;;;;;;6199639;23;20265;-62
2021/04/28 06:24:08;;;;;;;6.10;5.50;;;7.70;99.90;;;;;;6195354;23;20627;-64
2021/04/28 06:26:35;;;;;;;6.37;5.77;;;7.80;99.90;;;;;;6193002;23;20176;-62
2021/04/28 06:29:01;;;;;;;5.53;4.97;;;7.90;99.90;;;;;;6169217;23;20595;-61
2021/04/28 06:31:29;;;;;;;7.10;5.30;;;8.00;99.90;;;;;;6195401;23;20632;-62
2021/04/28 06:33:57;;;;;;;5.70;5.20;;;8.10;99.90;;;;;;6185132;23;20152;-63
2021/04/28 06:36:23;;;;;;;5.47;4.97;;;8.10;99.90;;;;;;6183585;23;20543;-63
2021/04/28 06:38:51;;;;;;;5.83;5.23;;;8.20;99.90;;;;;;6158028;22;20625;-63
2021/04/28 06:41:16;;;;;;;7.60;5.70;;;8.30;99.90;;;;;;6162073;23;20184;-63
2021/04/28 06:43:42;;;;;;;5.77;5.27;;;8.30;99.90;;;;;;6183251;22;21155;-63
2021/04/28 06:46:07;;;;;;;5.30;4.87;;;8.40;99.90;;;;;;6182074;22;20211;-63
2021/04/28 06:48:33;;;;;;;6.20;5.20;;;8.40;99.90;;;;;;6186388;23;20230;-65
2021/04/28 06:51:01;;;;;;;6.10;5.30;;;8.50;99.90;;;;;;6164222;23;20627;-63
2021/04/28 06:53:27;;;;;;;6.10;5.50;;;8.60;99.90;;;;;;6196036;23;20539;-63
2021/04/28 06:55:53;;;;;;;5.60;5.10;;;8.80;99.90;;;;;;6194440;22;21037;-63
2021/04/28 06:58:20;;;;;;;7.27;4.97;;;8.90;99.90;;;;;;6187490;23;20678;-63
2021/04/28 07:00:46;;;;;;;5.70;4.80;;;8.90;99.90;;;;;;6190028;23;20215;-64
2021/04/28 07:03:12;;;;;;;5.77;4.63;;;9.00;99.90;;;;;;6192101;23;20523;-63
2021/04/28 07:05:37;;;;;;;5.60;5.10;;;9.10;99.90;;;;;;6193939;23;20165;-64
2021/04/28 07:08:03;;;;;;;4.97;4.47;;;9.30;99.90;;;;;;6190305;23;20208;-63
2021/04/28 07:10:29;;;;;;;5.87;5.23;;;9.40;99.90;;;;;;6187319;23;20449;-63
2021/04/28 07:12:55;;;;;;;5.47;5.07;;;9.40;99.90;;;;;;6163084;23;20663;-63
2021/04/28 07:15:23;;;;;;;6.00;5.47;;;9.50;99.90;;;;;;6188223;23;20160;-64
2021/04/28 07:17:50;;;;;;;5.37;4.80;;;9.60;99.90;;;;;;6195005;23;20265;-64
2021/04/28 07:20:16;;;;;;;7.67;5.20;;;9.80;99.90;;;;;;6185569;22;21235;-63
2021/04/28 07:22:42;;;;;;;5.10;4.60;;;9.90;99.90;;;;;;6189759;23;20532;-63
2021/04/28 07:25:08;;;;;;;5.83;5.33;;;9.90;99.90;;;;;;6184947;23;20535;-63
2021/04/28 07:27:34;;;;;;;5.73;5.23;;;10.00;99.90;;;;;;6188868;23;21296;-64
2021/04/28 07:30:03;;;;;;;7.43;5.67;;;10.10;99.90;;;;;;6163769;23;21090;-64
2021/04/28 07:32:29;;;;;;;5.67;5.17;;;10.20;99.90;;;;;;6166814;23;20719;-63
2021/04/28 07:34:54;;;;;;;5.37;4.93;;;10.30;99.90;;;;;;6189143;23;20991;-64
2021/04/28 07:37:22;;;;;;;6.63;5.50;;;10.40;99.90;;;;;;6184988;23;20278;-62
2021/04/28 07:39:50;;;;;;;7.37;5.20;;;10.50;99.90;;;;;;6193981;23;20182;-64
2021/04/28 07:42:18;;;;;;;8.17;5.50;;;10.60;99.90;;;;;;6192170;22;21096;-63
2021/04/28 07:44:44;;;;;;;6.13;5.37;;;10.70;99.90;;;;;;6191856;23;20616;-63
2021/04/28 07:47:14;;;;;;;9.60;7.50;;;10.80;99.90;;;;;;6193430;23;20603;-64
2021/04/28 07:49:42;;;;;;;8.50;7.37;;;10.90;99.90;;;;;;6195103;23;20177;-64
2021/04/28 07:52:08;;;;;;;6.70;6.00;;;11.00;99.90;;;;;;6194918;22;20669;-63
2021/04/28 07:54:33;;;;;;;6.37;5.80;;;11.10;99.90;;;;;;6198353;23;20535;-63
2021/04/28 07:56:59;;;;;;;5.63;5.13;;;11.20;99.90;;;;;;6198109;23;20251;-64
2021/04/28 07:59:25;;;;;;;6.80;6.10;;;11.30;99.90;;;;;;6193276;23;20167;-64
2021/04/28 08:01:51;;;;;;;6.87;5.90;;;11.40;99.90;;;;;;6195577;22;20717;-64
2021/04/28 08:04:21;;;;;;;5.97;5.47;;;11.50;99.90;;;;;;6193602;23;20153;-64
2021/04/28 08:06:48;;;;;;;7.13;6.20;;;11.60;99.90;;;;;;6192359;23;20614;-63
2021/04/28 08:09:14;;;;;;;6.83;5.37;;;11.70;99.90;;;;;;6164846;23;20690;-64
2021/04/28 08:11:40;;;;;;;6.47;5.63;;;11.80;99.40;;;;;;6195058;23;20595;-62
2021/04/28 08:14:05;;;;;;;5.80;5.30;;;11.90;98.70;;;;;;6167403;23;20164;-64
2021/04/28 08:16:37;;;;;;;7.70;5.17;;;12.00;98.00;;;;;;6193547;23;21056;-64
2021/04/28 08:19:03;;;;;;;8.03;5.60;;;12.10;97.90;;;;;;6192043;23;20207;-64
2021/04/28 08:21:29;;;;;;;6.80;6.07;;;12.10;96.90;;;;;;6190686;23;20782;-64
2021/04/28 08:23:55;;;;;;;6.37;5.70;;;12.20;96.20;;;;;;6192046;23;21065;-62
2021/04/28 08:26:21;;;;;;;6.97;5.77;;;12.30;96.50;;;;;;6191606;23;20594;-63
2021/04/28 08:28:47;;;;;;;8.40;6.40;;;12.30;96.40;;;;;;6169390;22;20649;-63
2021/04/28 08:31:17;;;;;;;7.00;5.70;;;12.40;95.40;;;;;;6193275;23;20647;-63
2021/04/28 08:33:43;;;;;;;6.80;5.70;;;12.50;94.90;;;;;;6166990;23;20567;-64
2021/04/28 08:36:10;;;;;;;5.53;5.00;;;12.60;94.60;;;;;;6195859;23;20543;-63
2021/04/28 08:38:36;;;;;;;6.93;6.27;;;12.70;93.70;;;;;;6172531;22;20618;-64
2021/04/28 08:41:04;;;;;;;6.10;5.60;;;12.80;93.20;;;;;;6194555;23;20580;-63
2021/04/28 08:43:32;;;;;;;6.00;5.50;;;12.90;92.80;;;;;;6199409;23;20901;-64
2021/04/28 08:46:01;;;;;;;5.93;5.43;;;12.90;92.30;;;;;;6194370;22;20589;-63
2021/04/28 08:48:31;;;;;;;5.13;4.63;;;13.00;92.20;;;;;;6198555;23;20773;-64
2021/04/28 08:50:58;;;;;;;5.83;5.33;;;13.10;90.70;;;;;;6173638;23;20930;-63
2021/04/28 08:53:27;;;;;;;5.43;5.03;;;13.20;90.60;;;;;;6199194;23;20997;-65
2021/04/28 08:55:53;;;;;;;6.40;5.80;;;13.20;90.90;;;;;;6173371;23;20579;-63
2021/04/28 08:58:21;;;;;;;6.63;5.97;;;13.30;90.30;;;;;;6172258;23;21218;-63
2021/04/28 09:00:47;;;;;;;6.27;4.90;;;13.40;90.60;;;;;;6202783;22;20169;-63
2021/04/28 09:03:16;;;;;;;5.33;4.83;;;13.40;90.00;;;;;;6175741;23;21437;-64
2021/04/28 09:05:44;;;;;;;8.60;5.60;;;13.60;89.20;;;;;;6198297;22;20909;-64
2021/04/28 09:08:11;;;;;;;5.83;5.27;;;13.70;89.00;;;;;;6169597;23;20648;-63
2021/04/28 09:10:39;;;;;;;5.70;5.20;;;13.70;90.10;;;;;;6196415;23;20567;-63
2021/04/28 09:13:10;;;;;;;6.20;5.60;;;13.70;89.40;;;;;;6175138;22;20567;-63
2021/04/28 09:15:44;;;;;;;5.40;5.00;;;13.80;90.00;;;;;;6195458;23;20583;-64
2021/04/28 09:18:15;;;;;;;5.70;5.20;;;13.90;88.30;;;;;;6197681;23;20609;-64
2021/04/28 09:20:47;;;;;;;5.83;5.30;;;13.90;83.00;;;;;;6198594;22;21154;-64
2021/04/28 09:23:17;;;;;;;4.90;4.50;;;14.00;83.20;;;;;;6202578;23;21090;-64
2021/04/28 09:25:49;;;;;;;5.27;4.87;;;14.10;83.00;;;;;;6199154;23;20562;-64
2021/04/28 09:28:28;;;;;;;6.77;4.77;;;14.10;83.50;;;;;;6174384;23;21440;-64
2021/04/28 09:31:08;;;;;;;6.03;5.30;;;14.20;83.20;;;;;;6200499;22;20574;-63
2021/04/28 09:33:59;;;;;;;5.53;5.00;;;14.20;83.00;;;;;;6195819;23;21055;-64
2021/04/28 09:36:38;;;;;;;6.00;5.20;;;14.40;82.70;;;;;;6195082;23;21087;-64
2021/04/28 09:39:17;;;;;;;6.73;5.10;;;14.40;84.40;;;;;;6192782;22;20595;-64
2021/04/28 09:41:48;;;;;;;5.67;5.17;;;14.50;82.90;;;;;;6169539;22;20698;-64
2021/04/28 09:44:38;;;;;;;5.30;4.90;;;14.60;80.90;;;;;;6191683;23;20628;-63
2021/04/28 09:47:17;;;;;;;5.03;4.53;;;14.60;80.90;;;;;;6194351;23;20925;-64
2021/04/28 09:49:46;;;;;;;7.20;5.40;;;14.70;81.30;;;;;;6195724;22;20552;-64
2021/04/28 09:52:14;;;;;;;5.77;5.30;;;14.80;81.60;;;;;;6197093;23;20563;-64
2021/04/28 09:54:42;;;;;;;5.13;4.70;;;14.90;82.00;;;;;;6195980;23;20542;-64
2021/04/28 09:57:17;;;;;;;8.27;7.30;;;14.90;81.30;;;;;;6171473;23;20560;-64
2021/04/28 09:59:51;;;;;;;5.47;5.00;;;14.90;82.50;;;;;;6192535;23;21305;-64
2021/04/28 10:02:28;;;;;;;6.10;4.90;;;15.10;83.00;;;;;;6192961;23;20539;-64
2021/04/28 10:05:16;;;;;;;5.57;5.07;;;15.20;83.40;;;;;;6169117;23;20586;-63
2021/04/28 10:07:42;;;;;;;6.80;5.97;;;15.30;79.70;;;;;;6195595;22;20595;-64
2021/04/28 10:10:09;;;;;;;5.40;5.00;;;15.40;79.20;;;;;;6165762;23;20647;-63
2021/04/28 10:12:37;;;;;;;6.10;5.60;;;15.40;78.10;;;;;;6190727;23;20559;-62
2021/04/28 10:15:04;;;;;;;5.90;5.30;;;15.50;77.10;;;;;;6165754;23;21529;-63
2021/04/28 10:17:31;;;;;;;6.00;5.50;;;15.60;79.50;;;;;;6160421;23;21130;-63
2021/04/28 10:19:58;;;;;;;6.27;5.50;;;15.60;78.70;;;;;;6188008;23;20540;-63
2021/04/28 10:22:24;;;;;;;6.17;5.67;;;15.60;77.50;;;;;;6160601;23;20620;-64
2021/04/28 10:24:52;;;;;;;6.40;5.80;;;15.70;78.50;;;;;;6184889;23;21100;-64
2021/04/28 10:27:18;;;;;;;6.30;5.73;;;15.70;77.60;;;;;;6182765;23;20917;-64
2021/04/28 10:29:52;;;;;;;6.37;5.77;;;15.80;79.70;;;;;;6163245;22;20566;-64
2021/04/28 10:32:21;;;;;;;6.57;5.80;;;15.90;77.50;;;;;;6190902;23;21064;-64
2021/04/28 10:35:07;;;;;;;6.40;5.80;;;15.90;79.00;;;;;;6192137;23;20580;-63
2021/04/28 10:37:35;;;;;;;6.30;5.80;;;16.00;78.90;;;;;;6194229;23;20587;-64
2021/04/28 10:40:08;;;;;;;7.17;6.57;;;16.00;78.20;;;;;;6195358;23;20972;-65
2021/04/28 10:42:36;;;;;;;6.80;6.10;;;16.10;78.60;;;;;;6192785;23;20567;-63
2021/04/28 10:45:11;;;;;;;6.23;5.70;;;16.10;78.60;;;;;;6194402;23;20658;-65
2021/04/28 10:47:50;;;;;;;7.43;6.60;;;16.10;78.50;;;;;;6191317;23;20602;-64
2021/04/28 10:50:20;;;;;;;7.63;6.83;;;16.20;78.20;;;;;;6192953;23;20567;-64
2021/04/28 10:52:56;;;;;;;7.00;6.40;;;16.20;77.20;;;;;;6190250;22;20884;-64
2021/04/28 10:55:38;;;;;;;6.93;6.30;;;16.30;78.50;;;;;;6191363;22;20563;-64
2021/04/28 10:58:31;;;;;;;6.77;6.07;;;16.40;77.40;;;;;;6191949;23;20706;-64
2021/04/28 11:03:30;;;;;;;7.70;6.50;;;16.60;80.80;;;;;;6186919;23;21129;-64
2021/04/28 11:05:59;;;;;;;7.30;6.70;;;16.70;80.60;;;;;;6155221;23;20587;-64
2021/04/28 11:08:30;;;;;;;7.80;7.00;;;16.80;79.70;;;;;;6186172;22;20591;-64
2021/04/28 11:10:57;;;;;;;10.63;8.07;;;16.90;78.50;;;;;;6190364;23;20921;-64
2021/04/28 11:13:24;;;;;;;7.43;6.83;;;17.00;79.00;;;;;;6189229;22;20567;-63
2021/04/28 11:15:58;;;;;;;7.90;7.20;;;17.10;81.80;;;;;;6190468;22;20535;-62
2021/04/28 11:18:38;;;;;;;8.30;7.50;;;17.10;78.00;;;;;;6194045;23;20586;-62
2021/04/28 11:21:18;;;;;;;8.17;7.47;;;17.30;79.00;;;;;;6189870;23;20567;-63
2021/04/28 11:24:03;;;;;;;8.23;7.53;;;17.40;78.70;;;;;;6189537;23;20556;-62
2021/04/28 11:26:29;;;;;;;8.33;7.60;;;17.50;75.80;;;;;;6172896;23;20959;-63
2021/04/28 11:28:56;;;;;;;8.80;8.00;;;17.60;77.00;;;;;;6161589;22;20605;-61
2021/04/28 11:31:46;;;;;;;7.70;7.00;;;17.50;78.50;;;;;;6149481;22;20974;-63
2021/04/28 11:34:34;;;;;;;8.23;7.53;;;17.60;77.10;;;;;;6196485;23;21028;-62
2021/04/28 11:37:11;;;;;;;9.70;8.70;;;17.60;77.10;;;;;;6169842;23;20562;-61
2021/04/28 11:39:46;;;;;;;9.07;8.27;;;17.70;79.20;;;;;;6200357;23;20488;-62
2021/04/28 11:42:18;;;;;;;8.50;7.67;;;17.70;78.70;;;;;;6200067;23;20943;-62
2021/04/28 11:44:50;;;;;;;8.73;7.93;;;17.80;77.70;;;;;;6201390;23;20579;-62
2021/04/28 11:47:18;;;;;;;9.13;7.60;;;17.90;77.30;;;;;;6196746;23;21563;-62
2021/04/28 11:49:55;;;;;;;8.27;7.53;;;18.00;77.90;;;;;;6198095;23;21088;-62
2021/04/28 11:52:23;;;;;;;9.30;8.30;;;18.20;78.30;;;;;;6196655;23;20500;-61
2021/04/28 11:54:56;;;;;;;9.17;8.37;;;18.30;76.10;;;;;;6171416;22;20567;-62
2021/04/28 11:57:32;;;;;;;9.60;8.70;;;18.40;76.20;;;;;;6198403;23;20599;-63
2021/04/28 12:00:14;;;;;;;10.00;8.70;;;18.50;75.30;;;;;;6195846;22;20788;-62
2021/04/28 12:02:40;;;;;;;8.70;7.90;;;18.60;71.90;;;;;;6198776;23;20585;-63
2021/04/28 12:05:07;;;;;;;9.10;7.73;;;18.60;71.50;;;;;;6198897;22;20556;-62
2021/04/28 12:07:33;;;;;;;8.97;8.07;;;18.70;72.20;;;;;;6168193;22;20216;-61
2021/04/28 12:10:01;;;;;;;8.97;7.90;;;18.80;71.60;;;;;;6197632;23;20543;-63
2021/04/28 12:12:33;;;;;;;9.97;9.07;;;19.00;71.50;;;;;;6199963;23;20550;-62
2021/04/28 12:15:05;;;;;;;8.57;7.53;;;19.10;69.10;;;;;;6172958;23;20626;-63
2021/04/28 12:17:34;;;;;;;10.20;8.97;;;19.20;71.00;;;;;;6194832;22;20591;-63
2021/04/28 12:20:01;;;;;;;9.20;8.40;;;19.40;69.40;;;;;;6194020;23;20528;-63
2021/04/28 12:22:28;;;;;;;9.57;8.63;;;19.50;67.60;;;;;;6200779;23;21082;-63
2021/04/28 12:24:56;;;;;;;9.20;8.37;;;19.50;67.10;;;;;;6196727;23;20597;-64
2021/04/28 12:27:29;;;;;;;9.23;8.33;;;19.60;68.30;;;;;;6194564;23;20599;-64
2021/04/28 12:29:59;;;;;;;8.33;7.57;;;19.60;68.10;;;;;;6194083;23;20531;-63
2021/04/28 12:32:36;;;;;;;10.37;9.37;;;19.70;69.00;;;;;;6191502;23;20536;-61
2021/04/28 12:35:20;;;;;;;8.60;7.97;;;19.90;63.90;;;;;;6171202;23;20861;-62
2021/04/28 12:38:13;;;;;;;9.10;8.13;;;20.00;65.60;;;;;;6196519;22;20591;-63
2021/04/28 12:40:55;;;;;;;12.90;8.47;;;20.00;65.50;;;;;;6171663;22;21127;-68
2021/04/28 12:43:29;;;;;;;9.13;8.30;;;20.00;65.30;;;;;;6173451;23;20543;-67
2021/04/28 12:46:01;;;;;;;11.07;9.93;;;20.10;65.20;;;;;;6199916;23;20563;-66
2021/04/28 12:48:27;;;;;;;9.80;9.00;;;20.20;65.70;;;;;;6200041;23;20591;-65
2021/04/28 12:50:53;;;;;;;9.27;8.37;;;20.30;63.60;;;;;;6199487;23;20574;-65
2021/04/28 12:53:21;;;;;;;10.00;9.00;;;20.50;66.90;;;;;;6204188;23;20177;-63
2021/04/28 12:55:53;;;;;;;9.93;8.93;;;20.60;67.20;;;;;;6200454;23;20153;-65
2021/04/28 12:58:23;;;;;;;8.90;8.10;;;20.80;66.90;;;;;;6196246;23;20601;-66
2021/04/28 13:00:54;;;;;;;10.90;9.00;;;21.00;66.30;;;;;;6196683;23;20599;-66